sensor_id;sensor_type;location;lat;lon;timestamp;pressure;altitude;pressure_sealevel;temperature;humidity
77893;BME280;67087;50.094;14.338;2023-02-07T00:01:12;100205.77;;;26.89;27.94
77893;BME280;67087;50.094;14.338;2023-02-07T00:03:35;100205.61;;;27.12;28.00
77893;BME280;67087;50.094;14.338;2023-02-07T00:06:05;100201.64;;;26.91;27.96
77893;BME280;67087;50.094;14.338;2023-02-07T00:08:26;100195.66;;;26.84;28.04
77893;BME280;67087;50.094;14.338;2023-02-07T00:10:51;100215.32;;;26.89;28.06
77893;BME280;67087;50.094;14.338;2023-02-07T00:13:17;100207.30;;;26.87;28.06
77893;BME280;67087;50.094;14.338;2023-02-07T00:15:42;100205.83;;;26.92;28.06
77893;BME280;67087;50.094;14.338;2023-02-07T00:18:08;100210.59;;;26.97;27.96
77893;BME280;67087;50.094;14.338;2023-02-07T00:20:33;100208.94;;;27.17;28.02
77893;BME280;67087;50.094;14.338;2023-02-07T00:22:59;100203.11;;;26.97;28.03
77893;BME280;67087;50.094;14.338;2023-02-07T00:25:24;100209.24;;;27.21;28.04
77893;BME280;67087;50.094;14.338;2023-02-07T00:27:50;100219.02;;;27.00;27.99
77893;BME280;67087;50.094;14.338;2023-02-07T00:30:15;100221.52;;;27.08;27.92
77893;BME280;67087;50.094;14.338;2023-02-07T00:32:40;100223.73;;;27.10;27.94
77893;BME280;67087;50.094;14.338;2023-02-07T00:35:06;100226.28;;;27.06;28.02
77893;BME280;67087;50.094;14.338;2023-02-07T00:37:31;100227.17;;;27.07;28.01
77893;BME280;67087;50.094;14.338;2023-02-07T00:39:56;100220.89;;;27.08;28.03
77893;BME280;67087;50.094;14.338;2023-02-07T00:42:22;100214.68;;;27.06;28.06
77893;BME280;67087;50.094;14.338;2023-02-07T00:44:47;100213.93;;;26.99;28.12
77893;BME280;67087;50.094;14.338;2023-02-07T00:47:13;100224.31;;;27.04;28.09
77893;BME280;67087;50.094;14.338;2023-02-07T00:49:38;100223.14;;;27.00;28.12
77893;BME280;67087;50.094;14.338;2023-02-07T00:52:04;100223.33;;;27.02;28.12
77893;BME280;67087;50.094;14.338;2023-02-07T00:54:30;100224.19;;;26.97;28.18
77893;BME280;67087;50.094;14.338;2023-02-07T00:56:56;100220.23;;;26.99;28.15
77893;BME280;67087;50.094;14.338;2023-02-07T00:59:21;100217.14;;;27.00;28.18
77893;BME280;67087;50.094;14.338;2023-02-07T01:01:47;100213.60;;;26.97;28.23
77893;BME280;67087;50.094;14.338;2023-02-07T01:04:12;100213.19;;;26.98;28.21
77893;BME280;67087;50.094;14.338;2023-02-07T01:06:38;100215.26;;;26.98;28.21
77893;BME280;67087;50.094;14.338;2023-02-07T01:09:05;100221.99;;;27.45;28.23
77893;BME280;67087;50.094;14.338;2023-02-07T01:11:30;100232.35;;;27.01;28.22
77893;BME280;67087;50.094;14.338;2023-02-07T01:13:57;100231.71;;;27.21;28.26
77893;BME280;67087;50.094;14.338;2023-02-07T01:16:24;100230.12;;;26.99;28.24
77893;BME280;67087;50.094;14.338;2023-02-07T01:18:46;100230.28;;;27.01;28.17
77893;BME280;67087;50.094;14.338;2023-02-07T01:21:14;100232.20;;;27.03;28.14
77893;BME280;67087;50.094;14.338;2023-02-07T01:23:37;100237.29;;;27.01;28.15
77893;BME280;67087;50.094;14.338;2023-02-07T01:26:04;100236.95;;;27.03;28.14
77893;BME280;67087;50.094;14.338;2023-02-07T01:28:28;100228.46;;;27.03;28.13
77893;BME280;67087;50.094;14.338;2023-02-07T01:30:54;100228.76;;;27.08;28.08
77893;BME280;67087;50.094;14.338;2023-02-07T01:33:19;100229.45;;;27.02;28.14
77893;BME280;67087;50.094;14.338;2023-02-07T01:35:44;100226.46;;;27.02;28.18
77893;BME280;67087;50.094;14.338;2023-02-07T01:38:10;100225.18;;;27.03;28.14
77893;BME280;67087;50.094;14.338;2023-02-07T01:40:36;100222.53;;;27.03;28.14
77893;BME280;67087;50.094;14.338;2023-02-07T01:43:01;100219.40;;;27.02;28.15
77893;BME280;67087;50.094;14.338;2023-02-07T01:45:29;100219.80;;;27.04;28.16
77893;BME280;67087;50.094;14.338;2023-02-07T01:47:53;100221.89;;;27.05;28.16
77893;BME280;67087;50.094;14.338;2023-02-07T01:50:18;100225.22;;;27.07;28.18
77893;BME280;67087;50.094;14.338;2023-02-07T01:52:43;100223.87;;;27.05;28.21
77893;BME280;67087;50.094;14.338;2023-02-07T01:55:11;100224.00;;;27.04;28.20
77893;BME280;67087;50.094;14.338;2023-02-07T01:57:34;100223.66;;;27.02;28.25
77893;BME280;67087;50.094;14.338;2023-02-07T02:00:00;100225.59;;;27.02;28.29
77893;BME280;67087;50.094;14.338;2023-02-07T02:02:26;100222.51;;;27.00;28.32
77893;BME280;67087;50.094;14.338;2023-02-07T02:04:51;100217.11;;;27.01;28.33
77893;BME280;67087;50.094;14.338;2023-02-07T02:07:16;100213.79;;;27.24;28.40
77893;BME280;67087;50.094;14.338;2023-02-07T02:09:41;100209.16;;;26.91;28.49
77893;BME280;67087;50.094;14.338;2023-02-07T02:12:21;100207.90;;;26.93;28.47
77893;BME280;67087;50.094;14.338;2023-02-07T02:14:46;100205.36;;;26.91;28.53
77893;BME280;67087;50.094;14.338;2023-02-07T02:17:03;100208.04;;;26.96;28.46
77893;BME280;67087;50.094;14.338;2023-02-07T02:22:07;100206.18;;;27.02;28.38
77893;BME280;67087;50.094;14.338;2023-02-07T02:24:30;100207.48;;;27.04;28.35
77893;BME280;67087;50.094;14.338;2023-02-07T02:26:53;100207.14;;;27.03;28.36
77893;BME280;67087;50.094;14.338;2023-02-07T02:29:29;100211.61;;;27.02;28.39
77893;BME280;67087;50.094;14.338;2023-02-07T02:31:45;100209.40;;;27.05;28.36
77893;BME280;67087;50.094;14.338;2023-02-07T02:33:56;100208.53;;;27.06;28.32
77893;BME280;67087;50.094;14.338;2023-02-07T02:36:28;100207.21;;;27.03;28.34
77893;BME280;67087;50.094;14.338;2023-02-07T02:38:52;100203.90;;;27.06;28.31
77893;BME280;67087;50.094;14.338;2023-02-07T02:41:16;100204.99;;;27.04;28.32
77893;BME280;67087;50.094;14.338;2023-02-07T02:43:43;100207.24;;;27.02;28.41
77893;BME280;67087;50.094;14.338;2023-02-07T02:46:07;100209.15;;;27.02;28.35
77893;BME280;67087;50.094;14.338;2023-02-07T02:48:30;100211.96;;;26.98;28.38
77893;BME280;67087;50.094;14.338;2023-02-07T02:50:54;100209.11;;;27.23;28.38
77893;BME280;67087;50.094;14.338;2023-02-07T02:53:19;100208.66;;;27.03;28.36
77893;BME280;67087;50.094;14.338;2023-02-07T02:56:06;100210.89;;;26.93;28.50
77893;BME280;67087;50.094;14.338;2023-02-07T02:58:15;100213.66;;;27.02;28.47
77893;BME280;67087;50.094;14.338;2023-02-07T03:00:47;100206.62;;;27.01;28.46
77893;BME280;67087;50.094;14.338;2023-02-07T03:03:16;100204.22;;;27.03;28.45
77893;BME280;67087;50.094;14.338;2023-02-07T03:05:37;100203.52;;;27.03;28.45
77893;BME280;67087;50.094;14.338;2023-02-07T03:07:59;100200.43;;;27.00;28.53
77893;BME280;67087;50.094;14.338;2023-02-07T03:10:24;100198.42;;;27.01;28.48
77893;BME280;67087;50.094;14.338;2023-02-07T03:12:49;100195.13;;;27.28;28.51
77893;BME280;67087;50.094;14.338;2023-02-07T03:15:15;100194.42;;;27.01;28.57
77893;BME280;67087;50.094;14.338;2023-02-07T03:17:38;100193.88;;;27.03;28.50
77893;BME280;67087;50.094;14.338;2023-02-07T03:20:03;100193.55;;;26.94;28.63
77893;BME280;67087;50.094;14.338;2023-02-07T03:22:25;100189.98;;;26.95;28.64
77893;BME280;67087;50.094;14.338;2023-02-07T03:24:52;100191.07;;;26.93;28.67
77893;BME280;67087;50.094;14.338;2023-02-07T03:27:17;100192.37;;;27.43;28.61
77893;BME280;67087;50.094;14.338;2023-02-07T03:29:43;100201.67;;;27.19;28.64
77893;BME280;67087;50.094;14.338;2023-02-07T03:32:07;100211.49;;;26.95;28.66
77893;BME280;67087;50.094;14.338;2023-02-07T03:34:35;100220.83;;;26.92;28.66
77893;BME280;67087;50.094;14.338;2023-02-07T03:37:02;100218.61;;;26.93;28.63
77893;BME280;67087;50.094;14.338;2023-02-07T03:39:23;100219.11;;;26.94;28.66
77893;BME280;67087;50.094;14.338;2023-02-07T03:41:51;100218.46;;;26.95;28.61
77893;BME280;67087;50.094;14.338;2023-02-07T03:44:14;100217.14;;;26.94;28.64
77893;BME280;67087;50.094;14.338;2023-02-07T03:46:40;100222.14;;;27.20;28.63
77893;BME280;67087;50.094;14.338;2023-02-07T03:49:05;100224.70;;;27.19;28.66
77893;BME280;67087;50.094;14.338;2023-02-07T03:51:30;100224.28;;;26.92;28.68
77893;BME280;67087;50.094;14.338;2023-02-07T03:53:55;100222.05;;;27.12;28.69
77893;BME280;67087;50.094;14.338;2023-02-07T03:56:21;100211.88;;;26.93;28.67
77893;BME280;67087;50.094;14.338;2023-02-07T03:58:46;100203.36;;;26.88;28.77
77893;BME280;67087;50.094;14.338;2023-02-07T04:01:12;100204.59;;;27.14;28.75
77893;BME280;67087;50.094;14.338;2023-02-07T04:03:38;100198.95;;;26.89;28.78
77893;BME280;67087;50.094;14.338;2023-02-07T04:06:03;100195.22;;;26.86;28.82
77893;BME280;67087;50.094;14.338;2023-02-07T04:08:28;100189.80;;;26.85;28.85
77893;BME280;67087;50.094;14.338;2023-02-07T04:10:56;100192.36;;;27.08;28.85
77893;BME280;67087;50.094;14.338;2023-02-07T04:13:19;100191.76;;;26.91;28.82
77893;BME280;67087;50.094;14.338;2023-02-07T04:15:45;100197.77;;;26.89;28.84
77893;BME280;67087;50.094;14.338;2023-02-07T04:18:11;100196.72;;;26.93;28.75
77893;BME280;67087;50.094;14.338;2023-02-07T04:20:37;100190.58;;;26.89;28.83
77893;BME280;67087;50.094;14.338;2023-02-07T04:23:02;100187.02;;;26.88;28.79
77893;BME280;67087;50.094;14.338;2023-02-07T04:25:27;100185.61;;;26.84;28.83
77893;BME280;67087;50.094;14.338;2023-02-07T04:27:53;100181.63;;;26.85;28.83
77893;BME280;67087;50.094;14.338;2023-02-07T04:30:18;100180.50;;;26.84;28.77
77893;BME280;67087;50.094;14.338;2023-02-07T04:32:43;100183.34;;;27.34;28.83
77893;BME280;67087;50.094;14.338;2023-02-07T04:35:09;100183.11;;;27.13;28.82
77893;BME280;67087;50.094;14.338;2023-02-07T04:37:34;100186.73;;;26.88;28.82
77893;BME280;67087;50.094;14.338;2023-02-07T04:39:59;100191.68;;;26.92;28.76
77893;BME280;67087;50.094;14.338;2023-02-07T04:42:24;100190.90;;;27.11;28.82
77893;BME280;67087;50.094;14.338;2023-02-07T04:44:50;100193.46;;;26.86;28.79
77893;BME280;67087;50.094;14.338;2023-02-07T04:47:16;100200.69;;;26.87;28.78
77893;BME280;67087;50.094;14.338;2023-02-07T04:49:41;100207.85;;;26.81;28.86
77893;BME280;67087;50.094;14.338;2023-02-07T04:52:06;100208.26;;;26.88;28.79
77893;BME280;67087;50.094;14.338;2023-02-07T04:54:31;100207.34;;;26.88;28.74
77893;BME280;67087;50.094;14.338;2023-02-07T04:56:57;100209.12;;;26.90;28.72
77893;BME280;67087;50.094;14.338;2023-02-07T04:59:23;100217.26;;;26.86;28.79
77893;BME280;67087;50.094;14.338;2023-02-07T05:01:48;100230.15;;;26.89;28.73
77893;BME280;67087;50.094;14.338;2023-02-07T05:04:14;100237.24;;;26.95;28.68
77893;BME280;67087;50.094;14.338;2023-02-07T05:06:40;100248.28;;;26.95;28.65
77893;BME280;67087;50.094;14.338;2023-02-07T05:09:05;100246.95;;;26.92;28.71
77893;BME280;67087;50.094;14.338;2023-02-07T05:11:30;100246.82;;;26.95;28.68
77893;BME280;67087;50.094;14.338;2023-02-07T05:13:56;100246.29;;;26.93;28.68
77893;BME280;67087;50.094;14.338;2023-02-07T05:16:21;100249.46;;;26.90;28.73
77893;BME280;67087;50.094;14.338;2023-02-07T05:18:47;100254.76;;;26.92;28.67
77893;BME280;67087;50.094;14.338;2023-02-07T05:21:12;100258.48;;;26.89;28.73
77893;BME280;67087;50.094;14.338;2023-02-07T05:23:38;100255.81;;;26.85;28.78
77893;BME280;67087;50.094;14.338;2023-02-07T05:26:03;100253.47;;;26.86;28.74
77893;BME280;67087;50.094;14.338;2023-02-07T05:28:28;100254.92;;;26.88;28.75
77893;BME280;67087;50.094;14.338;2023-02-07T05:30:55;100256.75;;;26.88;28.82
77893;BME280;67087;50.094;14.338;2023-02-07T05:33:20;100258.82;;;26.88;28.76
77893;BME280;67087;50.094;14.338;2023-02-07T05:35:45;100255.66;;;26.89;28.76
77893;BME280;67087;50.094;14.338;2023-02-07T05:38:12;100262.03;;;26.88;28.80
77893;BME280;67087;50.094;14.338;2023-02-07T05:40:37;100264.88;;;26.87;28.80
77893;BME280;67087;50.094;14.338;2023-02-07T05:43:01;100266.10;;;27.35;28.83
77893;BME280;67087;50.094;14.338;2023-02-07T05:45:27;100267.33;;;26.87;28.82
77893;BME280;67087;50.094;14.338;2023-02-07T05:47:52;100267.04;;;26.88;28.80
77893;BME280;67087;50.094;14.338;2023-02-07T05:50:17;100264.32;;;26.80;28.92
77893;BME280;67087;50.094;14.338;2023-02-07T05:52:43;100265.95;;;26.83;28.93
77893;BME280;67087;50.094;14.338;2023-02-07T05:55:09;100260.27;;;26.79;28.91
77893;BME280;67087;50.094;14.338;2023-02-07T05:57:33;100262.49;;;27.03;28.96
77893;BME280;67087;50.094;14.338;2023-02-07T05:59:58;100264.63;;;26.55;28.95
77893;BME280;67087;50.094;14.338;2023-02-07T06:02:23;100265.23;;;26.80;28.94
77893;BME280;67087;50.094;14.338;2023-02-07T06:04:49;100265.92;;;27.32;28.94
77893;BME280;67087;50.094;14.338;2023-02-07T06:07:14;100269.77;;;26.80;29.93
77893;BME280;67087;50.094;14.338;2023-02-07T06:09:39;100272.34;;;26.40;30.31
77893;BME280;67087;50.094;14.338;2023-02-07T06:12:05;100269.66;;;26.92;30.03
77893;BME280;67087;50.094;14.338;2023-02-07T06:14:30;100260.82;;;26.75;30.05
77893;BME280;67087;50.094;14.338;2023-02-07T06:16:55;100251.51;;;26.54;30.31
77893;BME280;67087;50.094;14.338;2023-02-07T06:19:20;100255.65;;;26.32;30.68
77893;BME280;67087;50.094;14.338;2023-02-07T06:21:46;100261.35;;;26.38;30.75
77893;BME280;67087;50.094;14.338;2023-02-07T06:24:12;100259.69;;;26.50;30.75
77893;BME280;67087;50.094;14.338;2023-02-07T06:26:37;100254.62;;;26.55;30.84
77893;BME280;67087;50.094;14.338;2023-02-07T06:29:02;100256.49;;;26.45;31.06
77893;BME280;67087;50.094;14.338;2023-02-07T06:31:27;100256.64;;;26.42;30.82
77893;BME280;67087;50.094;14.338;2023-02-07T06:33:52;100256.39;;;26.69;30.87
77893;BME280;67087;50.094;14.338;2023-02-07T06:36:17;100257.82;;;26.58;30.74
77893;BME280;67087;50.094;14.338;2023-02-07T06:38:42;100256.00;;;26.79;30.81
77893;BME280;67087;50.094;14.338;2023-02-07T06:41:08;100256.50;;;26.90;30.74
77893;BME280;67087;50.094;14.338;2023-02-07T06:43:33;100255.50;;;26.92;30.73
77893;BME280;67087;50.094;14.338;2023-02-07T06:45:58;100256.12;;;26.95;30.79
77893;BME280;67087;50.094;14.338;2023-02-07T06:48:23;100256.02;;;27.04;30.74
77893;BME280;67087;50.094;14.338;2023-02-07T06:50:49;100250.06;;;26.89;30.67
77893;BME280;67087;50.094;14.338;2023-02-07T06:53:15;100243.93;;;26.97;30.67
77893;BME280;67087;50.094;14.338;2023-02-07T06:55:40;100239.85;;;27.15;30.72
77893;BME280;67087;50.094;14.338;2023-02-07T06:58:06;100237.83;;;27.13;30.83
77893;BME280;67087;50.094;14.338;2023-02-07T07:00:31;100238.72;;;27.20;30.70
77893;BME280;67087;50.094;14.338;2023-02-07T07:02:57;100243.89;;;27.01;30.65
77893;BME280;67087;50.094;14.338;2023-02-07T07:05:23;100241.60;;;27.31;30.48
77893;BME280;67087;50.094;14.338;2023-02-07T07:07:48;100237.20;;;27.03;30.51
77893;BME280;67087;50.094;14.338;2023-02-07T07:10:13;100238.40;;;27.21;30.61
77893;BME280;67087;50.094;14.338;2023-02-07T07:12:38;100240.87;;;27.07;30.45
77893;BME280;67087;50.094;14.338;2023-02-07T07:15:04;100239.56;;;27.40;30.36
77893;BME280;67087;50.094;14.338;2023-02-07T07:17:29;100239.61;;;27.09;30.45
77893;BME280;67087;50.094;14.338;2023-02-07T07:19:55;100239.30;;;27.38;30.47
77893;BME280;67087;50.094;14.338;2023-02-07T07:22:20;100236.90;;;27.46;30.60
77893;BME280;67087;50.094;14.338;2023-02-07T07:24:45;100238.29;;;27.30;30.31
77893;BME280;67087;50.094;14.338;2023-02-07T07:27:11;100242.15;;;27.18;30.51
77893;BME280;67087;50.094;14.338;2023-02-07T07:29:37;100246.27;;;27.02;30.38
77893;BME280;67087;50.094;14.338;2023-02-07T07:32:03;100252.97;;;27.16;30.52
77893;BME280;67087;50.094;14.338;2023-02-07T07:34:28;100261.83;;;27.27;30.40
77893;BME280;67087;50.094;14.338;2023-02-07T07:36:53;100263.18;;;27.20;30.46
77893;BME280;67087;50.094;14.338;2023-02-07T07:39:18;100259.90;;;26.98;30.47
77893;BME280;67087;50.094;14.338;2023-02-07T07:41:44;100259.92;;;27.03;30.38
77893;BME280;67087;50.094;14.338;2023-02-07T07:44:09;100256.86;;;27.28;30.43
77893;BME280;67087;50.094;14.338;2023-02-07T07:46:35;100263.14;;;27.25;30.44
77893;BME280;67087;50.094;14.338;2023-02-07T07:49:00;100267.86;;;27.27;30.40
77893;BME280;67087;50.094;14.338;2023-02-07T07:51:25;100271.64;;;27.11;30.29
77893;BME280;67087;50.094;14.338;2023-02-07T07:53:51;100271.31;;;27.26;30.35
77893;BME280;67087;50.094;14.338;2023-02-07T07:56:16;100269.70;;;27.01;30.38
77893;BME280;67087;50.094;14.338;2023-02-07T07:58:41;100268.52;;;27.24;30.48
77893;BME280;67087;50.094;14.338;2023-02-07T08:01:07;100268.79;;;27.00;30.46
77893;BME280;67087;50.094;14.338;2023-02-07T08:03:33;100277.54;;;26.95;28.67
77893;BME280;67087;50.094;14.338;2023-02-07T08:05:58;100276.37;;;27.40;26.44
77893;BME280;67087;50.094;14.338;2023-02-07T08:08:23;100279.18;;;27.08;24.84
77893;BME280;67087;50.094;14.338;2023-02-07T08:10:49;100280.89;;;27.32;25.40
77893;BME280;67087;50.094;14.338;2023-02-07T08:13:14;100281.16;;;27.23;26.18
77893;BME280;67087;50.094;14.338;2023-02-07T08:15:39;100285.32;;;27.27;26.64
77893;BME280;67087;50.094;14.338;2023-02-07T08:18:05;100288.39;;;27.00;26.94
77893;BME280;67087;50.094;14.338;2023-02-07T08:20:30;100283.50;;;27.07;27.03
77893;BME280;67087;50.094;14.338;2023-02-07T08:22:56;100278.78;;;27.28;27.36
77893;BME280;67087;50.094;14.338;2023-02-07T08:25:21;100273.33;;;27.09;27.91
77893;BME280;67087;50.094;14.338;2023-02-07T08:27:46;100267.97;;;26.86;28.03
77893;BME280;67087;50.094;14.338;2023-02-07T08:30:13;100260.16;;;27.10;28.24
77893;BME280;67087;50.094;14.338;2023-02-07T08:32:38;100259.76;;;27.07;28.65
77893;BME280;67087;50.094;14.338;2023-02-07T08:35:03;100258.28;;;27.40;28.61
77893;BME280;67087;50.094;14.338;2023-02-07T08:37:28;100259.59;;;27.31;28.54
77893;BME280;67087;50.094;14.338;2023-02-07T08:39:54;100259.04;;;27.12;28.49
77893;BME280;67087;50.094;14.338;2023-02-07T08:42:20;100255.32;;;27.13;28.51
77893;BME280;67087;50.094;14.338;2023-02-07T08:44:46;100257.91;;;26.98;28.82
77893;BME280;67087;50.094;14.338;2023-02-07T08:47:11;100256.07;;;27.24;28.91
77893;BME280;67087;50.094;14.338;2023-02-07T08:49:36;100255.92;;;27.02;29.00
77893;BME280;67087;50.094;14.338;2023-02-07T08:52:01;100252.93;;;27.02;29.04
77893;BME280;67087;50.094;14.338;2023-02-07T08:54:27;100256.42;;;27.26;28.92
77893;BME280;67087;50.094;14.338;2023-02-07T08:56:52;100257.73;;;26.89;29.89
77893;BME280;67087;50.094;14.338;2023-02-07T08:59:17;100258.71;;;26.90;29.64
77893;BME280;67087;50.094;14.338;2023-02-07T09:01:43;100262.58;;;27.03;29.73
77893;BME280;67087;50.094;14.338;2023-02-07T09:04:09;100261.17;;;27.01;29.51
77893;BME280;67087;50.094;14.338;2023-02-07T09:06:34;100263.84;;;27.02;29.10
77893;BME280;67087;50.094;14.338;2023-02-07T09:09:00;100264.26;;;26.59;29.39
77893;BME280;67087;50.094;14.338;2023-02-07T09:11:25;100268.53;;;26.89;29.62
77893;BME280;67087;50.094;14.338;2023-02-07T09:13:50;100269.31;;;26.62;29.26
77893;BME280;67087;50.094;14.338;2023-02-07T09:16:16;100270.70;;;26.90;28.86
77893;BME280;67087;50.094;14.338;2023-02-07T09:18:41;100265.09;;;26.78;28.61
77893;BME280;67087;50.094;14.338;2023-02-07T09:21:07;100264.56;;;26.73;28.32
77893;BME280;67087;50.094;14.338;2023-02-07T09:23:32;100268.58;;;26.98;28.26
77893;BME280;67087;50.094;14.338;2023-02-07T09:26:00;100274.38;;;26.93;28.15
77893;BME280;67087;50.094;14.338;2023-02-07T09:28:22;100274.35;;;26.87;28.21
77893;BME280;67087;50.094;14.338;2023-02-07T09:30:48;100275.35;;;26.82;28.18
77893;BME280;67087;50.094;14.338;2023-02-07T09:33:14;100278.25;;;26.90;28.16
77893;BME280;67087;50.094;14.338;2023-02-07T09:35:41;100280.57;;;26.80;28.18
77893;BME280;67087;50.094;14.338;2023-02-07T09:38:05;100282.37;;;26.89;28.26
77893;BME280;67087;50.094;14.338;2023-02-07T09:40:32;100282.86;;;27.06;33.12
77893;BME280;67087;50.094;14.338;2023-02-07T09:42:58;100282.35;;;27.27;32.10
77893;BME280;67087;50.094;14.338;2023-02-07T09:45:24;100280.79;;;27.07;31.64
77893;BME280;67087;50.094;14.338;2023-02-07T09:47:50;100281.64;;;27.37;31.12
77893;BME280;67087;50.094;14.338;2023-02-07T09:50:15;100285.01;;;26.85;30.85
77893;BME280;67087;50.094;14.338;2023-02-07T09:52:42;100286.98;;;27.21;29.88
77893;BME280;67087;50.094;14.338;2023-02-07T09:55:04;100284.90;;;27.14;29.29
77893;BME280;67087;50.094;14.338;2023-02-07T09:57:31;100282.73;;;26.99;29.18
77893;BME280;67087;50.094;14.338;2023-02-07T09:59:56;100281.02;;;27.21;29.14
77893;BME280;67087;50.094;14.338;2023-02-07T10:02:24;100276.48;;;26.89;28.65
77893;BME280;67087;50.094;14.338;2023-02-07T10:04:46;100269.97;;;27.00;29.47
77893;BME280;67087;50.094;14.338;2023-02-07T10:07:10;100266.75;;;26.89;28.71
77893;BME280;67087;50.094;14.338;2023-02-07T10:09:38;100271.46;;;26.86;28.60
77893;BME280;67087;50.094;14.338;2023-02-07T10:12:03;100271.58;;;26.87;29.01
77893;BME280;67087;50.094;14.338;2023-02-07T10:14:41;100270.83;;;27.10;28.27
77893;BME280;67087;50.094;14.338;2023-02-07T10:17:04;100265.77;;;26.67;27.88
77893;BME280;67087;50.094;14.338;2023-02-07T10:19:24;100264.93;;;26.68;27.63
77893;BME280;67087;50.094;14.338;2023-02-07T10:21:46;100264.22;;;26.87;27.52
77893;BME280;67087;50.094;14.338;2023-02-07T10:24:19;100265.74;;;26.95;27.33
77893;BME280;67087;50.094;14.338;2023-02-07T10:26:35;100263.88;;;27.19;27.48
77893;BME280;67087;50.094;14.338;2023-02-07T10:29:12;100261.50;;;27.30;27.32
77893;BME280;67087;50.094;14.338;2023-02-07T10:31:24;100259.88;;;26.94;27.46
77893;BME280;67087;50.094;14.338;2023-02-07T10:33:51;100262.17;;;27.18;27.10
77893;BME280;67087;50.094;14.338;2023-02-07T10:36:14;100258.01;;;27.14;27.07
77893;BME280;67087;50.094;14.338;2023-02-07T10:38:43;100256.91;;;27.11;27.03
77893;BME280;67087;50.094;14.338;2023-02-07T10:41:08;100249.56;;;26.86;27.07
77893;BME280;67087;50.094;14.338;2023-02-07T10:43:29;100247.49;;;27.04;27.37
77893;BME280;67087;50.094;14.338;2023-02-07T10:45:57;100243.15;;;26.93;27.01
77893;BME280;67087;50.094;14.338;2023-02-07T10:48:18;100242.26;;;27.09;26.89
77893;BME280;67087;50.094;14.338;2023-02-07T10:50:43;100235.14;;;27.10;26.74
77893;BME280;67087;50.094;14.338;2023-02-07T10:53:08;100233.14;;;27.10;26.75
77893;BME280;67087;50.094;14.338;2023-02-07T10:55:36;100237.93;;;27.06;26.57
77893;BME280;67087;50.094;14.338;2023-02-07T10:57:59;100242.97;;;26.82;26.54
77893;BME280;67087;50.094;14.338;2023-02-07T11:00:26;100243.29;;;27.02;26.53
77893;BME280;67087;50.094;14.338;2023-02-07T11:02:49;100238.57;;;26.79;26.42
77893;BME280;67087;50.094;14.338;2023-02-07T11:05:26;100239.78;;;27.06;26.57
77893;BME280;67087;50.094;14.338;2023-02-07T11:07:39;100240.38;;;27.02;26.71
77893;BME280;67087;50.094;14.338;2023-02-07T11:10:13;100238.44;;;26.89;26.59
77893;BME280;67087;50.094;14.338;2023-02-07T11:12:29;100234.62;;;27.15;26.63
77893;BME280;67087;50.094;14.338;2023-02-07T11:15:00;100230.94;;;26.86;26.54
77893;BME280;67087;50.094;14.338;2023-02-07T11:17:20;100229.23;;;26.86;26.36
77893;BME280;67087;50.094;14.338;2023-02-07T11:19:44;100225.17;;;26.82;26.29
77893;BME280;67087;50.094;14.338;2023-02-07T11:22:16;100225.91;;;27.01;26.27
77893;BME280;67087;50.094;14.338;2023-02-07T11:24:36;100229.28;;;26.80;26.65
77893;BME280;67087;50.094;14.338;2023-02-07T11:27:02;100229.36;;;27.03;26.95
77893;BME280;67087;50.094;14.338;2023-02-07T11:29:25;100229.40;;;27.34;27.19
77893;BME280;67087;50.094;14.338;2023-02-07T11:31:51;100226.71;;;27.03;27.54
77893;BME280;67087;50.094;14.338;2023-02-07T11:34:30;100225.78;;;27.24;27.77
77893;BME280;67087;50.094;14.338;2023-02-07T11:36:40;100218.35;;;27.17;28.30
77893;BME280;67087;50.094;14.338;2023-02-07T11:39:14;100215.72;;;27.00;28.28
77893;BME280;67087;50.094;14.338;2023-02-07T11:41:32;100214.53;;;27.25;28.23
77893;BME280;67087;50.094;14.338;2023-02-07T11:43:58;100209.69;;;27.00;28.45
77893;BME280;67087;50.094;14.338;2023-02-07T11:46:21;100211.51;;;27.08;28.35
77893;BME280;67087;50.094;14.338;2023-02-07T11:48:48;100210.07;;;26.83;28.46
77893;BME280;67087;50.094;14.338;2023-02-07T11:51:15;100208.20;;;26.69;28.57
77893;BME280;67087;50.094;14.338;2023-02-07T11:53:38;100211.40;;;27.07;28.88
77893;BME280;67087;50.094;14.338;2023-02-07T11:56:01;100208.65;;;27.06;29.01
77893;BME280;67087;50.094;14.338;2023-02-07T11:58:31;100203.94;;;27.03;29.02
77893;BME280;67087;50.094;14.338;2023-02-07T12:00:54;100200.04;;;26.90;29.01
77893;BME280;67087;50.094;14.338;2023-02-07T12:03:21;100198.51;;;26.72;29.17
77893;BME280;67087;50.094;14.338;2023-02-07T12:05:43;100189.51;;;26.74;29.22
77893;BME280;67087;50.094;14.338;2023-02-07T12:08:11;100187.96;;;26.83;29.18
77893;BME280;67087;50.094;14.338;2023-02-07T12:10:33;100182.68;;;27.06;29.26
77893;BME280;67087;50.094;14.338;2023-02-07T12:12:59;100180.34;;;26.88;29.32
77893;BME280;67087;50.094;14.338;2023-02-07T12:15:27;100181.01;;;27.07;29.37
77893;BME280;67087;50.094;14.338;2023-02-07T12:17:55;100184.86;;;26.80;29.50
77893;BME280;67087;50.094;14.338;2023-02-07T12:20:19;100182.42;;;27.10;29.48
77893;BME280;67087;50.094;14.338;2023-02-07T12:22:41;100183.13;;;27.13;29.66
77893;BME280;67087;50.094;14.338;2023-02-07T12:25:08;100182.00;;;26.78;29.78
77893;BME280;67087;50.094;14.338;2023-02-07T12:27:30;100180.27;;;26.87;29.88
77893;BME280;67087;50.094;14.338;2023-02-07T12:29:58;100184.65;;;27.00;29.79
77893;BME280;67087;50.094;14.338;2023-02-07T12:32:25;100186.26;;;27.25;29.71